sensor_id;sensor_type;location;lat;lon;timestamp;temperature;humidity
38325;DHT22;24126;52.672;13.622;2022-09-21T00:01:12;12.70;68.10
38325;DHT22;24126;52.672;13.622;2022-09-21T00:03:40;12.70;68.20
38325;DHT22;24126;52.672;13.622;2022-09-21T00:06:08;12.70;68.30
38325;DHT22;24126;52.672;13.622;2022-09-21T00:08:35;12.70;68.40
38325;DHT22;24126;52.672;13.622;2022-09-21T00:11:03;12.70;68.40
38325;DHT22;24126;52.672;13.622;2022-09-21T00:13:31;12.70;68.20
38325;DHT22;24126;52.672;13.622;2022-09-21T00:15:59;12.70;68.20
38325;DHT22;24126;52.672;13.622;2022-09-21T00:18:26;12.70;68.20
38325;DHT22;24126;52.672;13.622;2022-09-21T00:20:53;12.70;68.10
38325;DHT22;24126;52.672;13.622;2022-09-21T00:23:20;12.70;68.10
38325;DHT22;24126;52.672;13.622;2022-09-21T00:25:48;12.60;68.10
38325;DHT22;24126;52.672;13.622;2022-09-21T00:28:15;12.60;68.30
38325;DHT22;24126;52.672;13.622;2022-09-21T00:30:42;12.60;68.40
38325;DHT22;24126;52.672;13.622;2022-09-21T00:33:09;12.60;68.40
38325;DHT22;24126;52.672;13.622;2022-09-21T00:35:36;12.60;68.30
38325;DHT22;24126;52.672;13.622;2022-09-21T00:38:03;12.60;68.40
38325;DHT22;24126;52.672;13.622;2022-09-21T00:40:30;12.60;68.40
38325;DHT22;24126;52.672;13.622;2022-09-21T00:43:11;12.50;68.20
38325;DHT22;24126;52.672;13.622;2022-09-21T00:45:38;12.50;68.40
38325;DHT22;24126;52.672;13.622;2022-09-21T00:48:05;12.50;68.50
38325;DHT22;24126;52.672;13.622;2022-09-21T00:50:32;12.50;68.40
38325;DHT22;24126;52.672;13.622;2022-09-21T00:53:00;12.50;68.40
38325;DHT22;24126;52.672;13.622;2022-09-21T00:55:32;12.50;68.20
38325;DHT22;24126;52.672;13.622;2022-09-21T00:58:04;12.50;68.10
38325;DHT22;24126;52.672;13.622;2022-09-21T01:00:33;12.50;68.10
38325;DHT22;24126;52.672;13.622;2022-09-21T01:03:00;12.50;68.20
38325;DHT22;24126;52.672;13.622;2022-09-21T01:05:27;12.40;68.10
38325;DHT22;24126;52.672;13.622;2022-09-21T01:07:54;12.40;68.00
38325;DHT22;24126;52.672;13.622;2022-09-21T01:10:22;12.40;68.00
38325;DHT22;24126;52.672;13.622;2022-09-21T01:18:20;12.30;67.90
38325;DHT22;24126;52.672;13.622;2022-09-21T01:20:54;12.30;68.00
38325;DHT22;24126;52.672;13.622;2022-09-21T01:26:11;12.30;68.20
38325;DHT22;24126;52.672;13.622;2022-09-21T01:31:35;12.20;68.30
38325;DHT22;24126;52.672;13.622;2022-09-21T01:34:06;12.20;68.20
38325;DHT22;24126;52.672;13.622;2022-09-21T01:36:35;12.20;68.20
38325;DHT22;24126;52.672;13.622;2022-09-21T01:39:10;12.20;68.30
38325;DHT22;24126;52.672;13.622;2022-09-21T01:41:39;12.20;68.30
38325;DHT22;24126;52.672;13.622;2022-09-21T01:44:24;12.20;68.30
38325;DHT22;24126;52.672;13.622;2022-09-21T01:46:52;12.20;68.30
38325;DHT22;24126;52.672;13.622;2022-09-21T01:49:23;12.10;68.20
38325;DHT22;24126;52.672;13.622;2022-09-21T01:51:55;12.10;68.10
38325;DHT22;24126;52.672;13.622;2022-09-21T01:54:24;12.10;68.10
38325;DHT22;24126;52.672;13.622;2022-09-21T01:56:58;12.10;68.10
38325;DHT22;24126;52.672;13.622;2022-09-21T01:59:37;12.10;68.10
38325;DHT22;24126;52.672;13.622;2022-09-21T02:02:10;12.10;68.00
38325;DHT22;24126;52.672;13.622;2022-09-21T02:04:39;12.10;68.00
38325;DHT22;24126;52.672;13.622;2022-09-21T02:07:06;12.10;68.10
38325;DHT22;24126;52.672;13.622;2022-09-21T02:09:34;12.00;68.20
38325;DHT22;24126;52.672;13.622;2022-09-21T02:12:02;12.00;68.40
38325;DHT22;24126;52.672;13.622;2022-09-21T02:14:29;12.00;68.50
38325;DHT22;24126;52.672;13.622;2022-09-21T02:17:20;12.00;68.40
38325;DHT22;24126;52.672;13.622;2022-09-21T02:19:45;12.00;68.20
38325;DHT22;24126;52.672;13.622;2022-09-21T02:25:05;11.90;68.50
38325;DHT22;24126;52.672;13.622;2022-09-21T02:30:22;11.80;68.50
38325;DHT22;24126;52.672;13.622;2022-09-21T02:32:58;11.80;68.80
38325;DHT22;24126;52.672;13.622;2022-09-21T02:38:00;11.80;68.70
38325;DHT22;24126;52.672;13.622;2022-09-21T02:40:42;11.80;68.60
38325;DHT22;24126;52.672;13.622;2022-09-21T02:45:58;11.80;68.40
38325;DHT22;24126;52.672;13.622;2022-09-21T02:48:31;11.80;68.20
38325;DHT22;24126;52.672;13.622;2022-09-21T02:51:02;11.80;68.20
38325;DHT22;24126;52.672;13.622;2022-09-21T02:53:32;11.80;68.40
38325;DHT22;24126;52.672;13.622;2022-09-21T02:56:01;11.70;68.60
38325;DHT22;24126;52.672;13.622;2022-09-21T02:58:36;11.70;68.80
38325;DHT22;24126;52.672;13.622;2022-09-21T03:01:04;11.70;68.60
38325;DHT22;24126;52.672;13.622;2022-09-21T03:03:33;11.70;68.60
38325;DHT22;24126;52.672;13.622;2022-09-21T03:06:00;11.70;68.60
38325;DHT22;24126;52.672;13.622;2022-09-21T03:08:27;11.70;68.40
38325;DHT22;24126;52.672;13.622;2022-09-21T03:10:55;11.60;68.30
38325;DHT22;24126;52.672;13.622;2022-09-21T03:13:22;11.60;68.50
38325;DHT22;24126;52.672;13.622;2022-09-21T03:15:57;11.60;68.60
38325;DHT22;24126;52.672;13.622;2022-09-21T03:18:24;11.60;68.50
38325;DHT22;24126;52.672;13.622;2022-09-21T03:20:51;11.50;68.80
38325;DHT22;24126;52.672;13.622;2022-09-21T03:23:18;11.50;68.90
38325;DHT22;24126;52.672;13.622;2022-09-21T03:25:46;11.50;68.90
38325;DHT22;24126;52.672;13.622;2022-09-21T03:28:13;11.50;68.80
38325;DHT22;24126;52.672;13.622;2022-09-21T03:30:41;11.50;68.70
38325;DHT22;24126;52.672;13.622;2022-09-21T03:33:08;11.50;68.90
38325;DHT22;24126;52.672;13.622;2022-09-21T03:35:36;11.50;69.00
38325;DHT22;24126;52.672;13.622;2022-09-21T03:38:03;11.50;69.10
38325;DHT22;24126;52.672;13.622;2022-09-21T03:40:30;11.50;69.20
38325;DHT22;24126;52.672;13.622;2022-09-21T03:42:58;11.50;69.20
38325;DHT22;24126;52.672;13.622;2022-09-21T03:45:25;11.50;69.10
38325;DHT22;24126;52.672;13.622;2022-09-21T03:47:55;11.50;69.30
38325;DHT22;24126;52.672;13.622;2022-09-21T03:50:24;11.50;69.50
38325;DHT22;24126;52.672;13.622;2022-09-21T03:52:53;11.50;69.60
38325;DHT22;24126;52.672;13.622;2022-09-21T03:55:20;11.50;69.60
38325;DHT22;24126;52.672;13.622;2022-09-21T03:57:47;11.50;69.60
38325;DHT22;24126;52.672;13.622;2022-09-21T04:00:14;11.60;69.70
38325;DHT22;24126;52.672;13.622;2022-09-21T04:02:41;11.60;69.60
38325;DHT22;24126;52.672;13.622;2022-09-21T04:05:09;11.60;69.70
38325;DHT22;24126;52.672;13.622;2022-09-21T04:07:36;11.60;69.70
38325;DHT22;24126;52.672;13.622;2022-09-21T04:10:04;11.50;69.80
38325;DHT22;24126;52.672;13.622;2022-09-21T04:12:32;11.60;69.80
38325;DHT22;24126;52.672;13.622;2022-09-21T04:14:59;11.50;69.80
38325;DHT22;24126;52.672;13.622;2022-09-21T04:17:27;11.60;69.80
38325;DHT22;24126;52.672;13.622;2022-09-21T04:19:54;11.60;69.80
38325;DHT22;24126;52.672;13.622;2022-09-21T04:22:21;11.50;69.70
38325;DHT22;24126;52.672;13.622;2022-09-21T04:24:49;11.50;69.90
38325;DHT22;24126;52.672;13.622;2022-09-21T04:27:16;11.50;69.80
38325;DHT22;24126;52.672;13.622;2022-09-21T04:29:43;11.50;69.90
38325;DHT22;24126;52.672;13.622;2022-09-21T04:32:10;11.50;70.10
38325;DHT22;24126;52.672;13.622;2022-09-21T04:34:37;11.50;70.10
38325;DHT22;24126;52.672;13.622;2022-09-21T04:37:05;11.50;70.10
38325;DHT22;24126;52.672;13.622;2022-09-21T04:39:33;11.50;70.00
38325;DHT22;24126;52.672;13.622;2022-09-21T04:42:00;11.50;70.20
38325;DHT22;24126;52.672;13.622;2022-09-21T04:44:27;11.50;70.20
38325;DHT22;24126;52.672;13.622;2022-09-21T04:46:55;11.50;70.40
38325;DHT22;24126;52.672;13.622;2022-09-21T04:49:22;11.50;70.40
38325;DHT22;24126;52.672;13.622;2022-09-21T04:51:49;11.50;70.40
38325;DHT22;24126;52.672;13.622;2022-09-21T04:54:16;11.40;70.30
38325;DHT22;24126;52.672;13.622;2022-09-21T04:56:43;11.40;70.50
38325;DHT22;24126;52.672;13.622;2022-09-21T04:59:10;11.40;70.60
38325;DHT22;24126;52.672;13.622;2022-09-21T05:01:37;11.40;70.60
38325;DHT22;24126;52.672;13.622;2022-09-21T05:04:04;11.40;70.70
38325;DHT22;24126;52.672;13.622;2022-09-21T05:06:31;11.50;70.90
38325;DHT22;24126;52.672;13.622;2022-09-21T05:08:59;11.50;70.70
38325;DHT22;24126;52.672;13.622;2022-09-21T05:11:43;11.50;70.70
38325;DHT22;24126;52.672;13.622;2022-09-21T05:14:11;11.60;70.70
38325;DHT22;24126;52.672;13.622;2022-09-21T05:16:38;11.60;70.90
38325;DHT22;24126;52.672;13.622;2022-09-21T05:19:05;11.60;70.90
38325;DHT22;24126;52.672;13.622;2022-09-21T05:21:32;11.70;71.00
38325;DHT22;24126;52.672;13.622;2022-09-21T05:24:01;11.70;71.00
38325;DHT22;24126;52.672;13.622;2022-09-21T05:26:28;11.70;71.00
38325;DHT22;24126;52.672;13.622;2022-09-21T05:28:55;11.70;71.00
38325;DHT22;24126;52.672;13.622;2022-09-21T05:31:30;11.80;71.10
38325;DHT22;24126;52.672;13.622;2022-09-21T05:34:02;11.80;71.10
38325;DHT22;24126;52.672;13.622;2022-09-21T05:36:51;11.80;71.90
38325;DHT22;24126;52.672;13.622;2022-09-21T05:39:21;11.80;71.30
38325;DHT22;24126;52.672;13.622;2022-09-21T05:41:48;11.90;71.50
38325;DHT22;24126;52.672;13.622;2022-09-21T05:44:15;11.90;71.50
38325;DHT22;24126;52.672;13.622;2022-09-21T05:49:25;12.00;71.70
38325;DHT22;24126;52.672;13.622;2022-09-21T05:51:59;12.00;71.80
38325;DHT22;24126;52.672;13.622;2022-09-21T05:54:33;12.10;71.80
38325;DHT22;24126;52.672;13.622;2022-09-21T05:59:42;12.20;71.70
38325;DHT22;24126;52.672;13.622;2022-09-21T06:04:56;12.30;71.80
38325;DHT22;24126;52.672;13.622;2022-09-21T06:07:23;12.30;71.80
38325;DHT22;24126;52.672;13.622;2022-09-21T06:09:50;12.30;71.80
38325;DHT22;24126;52.672;13.622;2022-09-21T06:12:17;12.40;71.80
38325;DHT22;24126;52.672;13.622;2022-09-21T06:14:44;12.40;71.80
38325;DHT22;24126;52.672;13.622;2022-09-21T06:17:11;12.50;72.00
38325;DHT22;24126;52.672;13.622;2022-09-21T06:19:38;12.50;71.90
38325;DHT22;24126;52.672;13.622;2022-09-21T06:22:05;12.60;72.00
38325;DHT22;24126;52.672;13.622;2022-09-21T06:24:32;12.60;72.10
38325;DHT22;24126;52.672;13.622;2022-09-21T06:26:59;12.70;71.90
38325;DHT22;24126;52.672;13.622;2022-09-21T06:29:26;12.70;71.80
38325;DHT22;24126;52.672;13.622;2022-09-21T06:31:53;12.80;71.80
38325;DHT22;24126;52.672;13.622;2022-09-21T06:34:20;12.80;71.90
38325;DHT22;24126;52.672;13.622;2022-09-21T06:36:47;12.90;72.00
38325;DHT22;24126;52.672;13.622;2022-09-21T06:39:14;12.90;72.10
38325;DHT22;24126;52.672;13.622;2022-09-21T06:41:40;13.00;72.10
38325;DHT22;24126;52.672;13.622;2022-09-21T06:44:09;13.00;72.20
38325;DHT22;24126;52.672;13.622;2022-09-21T06:46:36;13.10;72.30
38325;DHT22;24126;52.672;13.622;2022-09-21T06:49:03;13.20;72.60
38325;DHT22;24126;52.672;13.622;2022-09-21T06:51:30;13.40;72.30
38325;DHT22;24126;52.672;13.622;2022-09-21T07:38:26;10.90;76.00
38325;DHT22;24126;52.672;13.622;2022-09-21T07:40:54;11.90;78.40
38325;DHT22;24126;52.672;13.622;2022-09-21T07:43:21;12.20;78.20
38325;DHT22;24126;52.672;13.622;2022-09-21T07:45:54;12.60;78.20
38325;DHT22;24126;52.672;13.622;2022-09-21T07:48:21;12.90;77.80
38325;DHT22;24126;52.672;13.622;2022-09-21T07:50:48;13.20;77.50
38325;DHT22;24126;52.672;13.622;2022-09-21T07:53:15;13.50;77.00
38325;DHT22;24126;52.672;13.622;2022-09-21T07:55:43;13.80;76.60
38325;DHT22;24126;52.672;13.622;2022-09-21T07:58:10;14.10;76.20
38325;DHT22;24126;52.672;13.622;2022-09-21T08:00:54;14.40;75.80
38325;DHT22;24126;52.672;13.622;2022-09-21T08:03:21;14.60;75.20
38325;DHT22;24126;52.672;13.622;2022-09-21T08:05:48;14.90;74.90
38325;DHT22;24126;52.672;13.622;2022-09-21T08:08:16;15.10;74.80
38325;DHT22;24126;52.672;13.622;2022-09-21T08:10:43;15.30;74.70
38325;DHT22;24126;52.672;13.622;2022-09-21T08:13:09;15.40;74.50
38325;DHT22;24126;52.672;13.622;2022-09-21T08:15:36;15.60;74.10
38325;DHT22;24126;52.672;13.622;2022-09-21T08:18:03;15.70;73.80
38325;DHT22;24126;52.672;13.622;2022-09-21T08:20:32;15.90;73.60
38325;DHT22;24126;52.672;13.622;2022-09-21T08:22:59;16.00;73.60
38325;DHT22;24126;52.672;13.622;2022-09-21T08:25:27;16.10;73.20
38325;DHT22;24126;52.672;13.622;2022-09-21T08:27:57;16.20;73.00
38325;DHT22;24126;52.672;13.622;2022-09-21T08:30:25;16.30;72.80
38325;DHT22;24126;52.672;13.622;2022-09-21T08:32:53;16.50;72.80
38325;DHT22;24126;52.672;13.622;2022-09-21T08:35:21;16.60;72.40
38325;DHT22;24126;52.672;13.622;2022-09-21T08:37:48;16.70;72.20
38325;DHT22;24126;52.672;13.622;2022-09-21T08:40:18;17.00;73.10
38325;DHT22;24126;52.672;13.622;2022-09-21T08:42:51;17.40;73.20
38325;DHT22;24126;52.672;13.622;2022-09-21T08:45:20;17.80;72.20
38325;DHT22;24126;52.672;13.622;2022-09-21T08:47:57;18.20;71.80
38325;DHT22;24126;52.672;13.622;2022-09-21T08:50:27;18.60;71.00
38325;DHT22;24126;52.672;13.622;2022-09-21T08:52:57;18.90;70.20
38325;DHT22;24126;52.672;13.622;2022-09-21T08:55:26;19.10;69.10
38325;DHT22;24126;52.672;13.622;2022-09-21T08:57:53;19.30;68.70
38325;DHT22;24126;52.672;13.622;2022-09-21T09:00:20;19.60;68.30
38325;DHT22;24126;52.672;13.622;2022-09-21T09:03:03;19.90;66.90
38325;DHT22;24126;52.672;13.622;2022-09-21T09:05:44;20.10;66.00
38325;DHT22;24126;52.672;13.622;2022-09-21T09:08:18;20.40;65.10
38325;DHT22;24126;52.672;13.622;2022-09-21T09:13:27;20.90;64.80
38325;DHT22;24126;52.672;13.622;2022-09-21T09:16:04;21.00;63.90
38325;DHT22;24126;52.672;13.622;2022-09-21T09:18:38;21.20;63.30
38325;DHT22;24126;52.672;13.622;2022-09-21T09:21:11;21.50;62.90
38325;DHT22;24126;52.672;13.622;2022-09-21T09:23:40;21.70;62.70
38325;DHT22;24126;52.672;13.622;2022-09-21T09:26:20;21.90;62.50
38325;DHT22;24126;52.672;13.622;2022-09-21T09:28:49;22.00;62.00
38325;DHT22;24126;52.672;13.622;2022-09-21T09:31:18;22.20;61.50
38325;DHT22;24126;52.672;13.622;2022-09-21T09:33:55;22.40;60.90
38325;DHT22;24126;52.672;13.622;2022-09-21T09:36:28;22.60;59.90
38325;DHT22;24126;52.672;13.622;2022-09-21T09:39:02;22.70;59.70
38325;DHT22;24126;52.672;13.622;2022-09-21T09:44:22;23.00;58.60
38325;DHT22;24126;52.672;13.622;2022-09-21T09:47:03;23.10;56.90
38325;DHT22;24126;52.672;13.622;2022-09-21T09:49:37;23.30;57.70
38325;DHT22;24126;52.672;13.622;2022-09-21T09:52:04;23.20;56.70
38325;DHT22;24126;52.672;13.622;2022-09-21T09:54:32;22.90;56.30
38325;DHT22;24126;52.672;13.622;2022-09-21T09:57:01;22.70;56.90
38325;DHT22;24126;52.672;13.622;2022-09-21T09:59:31;22.50;57.80
38325;DHT22;24126;52.672;13.622;2022-09-21T10:02:02;22.50;58.60
38325;DHT22;24126;52.672;13.622;2022-09-21T10:04:29;22.70;58.50
38325;DHT22;24126;52.672;13.622;2022-09-21T10:06:59;22.90;57.50
38325;DHT22;24126;52.672;13.622;2022-09-21T10:09:27;23.10;56.70
38325;DHT22;24126;52.672;13.622;2022-09-21T10:12:14;23.20;56.20
38325;DHT22;24126;52.672;13.622;2022-09-21T10:14:48;23.30;56.00
38325;DHT22;24126;52.672;13.622;2022-09-21T10:17:16;23.30;54.30
38325;DHT22;24126;52.672;13.622;2022-09-21T10:19:43;23.10;54.20
38325;DHT22;24126;52.672;13.622;2022-09-21T10:22:14;23.00;54.80
38325;DHT22;24126;52.672;13.622;2022-09-21T10:24:46;23.00;54.90
38325;DHT22;24126;52.672;13.622;2022-09-21T10:27:15;23.10;54.70
38325;DHT22;24126;52.672;13.622;2022-09-21T10:29:46;23.20;53.90
38325;DHT22;24126;52.672;13.622;2022-09-21T10:32:26;23.40;53.70
38325;DHT22;24126;52.672;13.622;2022-09-21T10:37:37;23.70;54.10
38325;DHT22;24126;52.672;13.622;2022-09-21T10:42:45;24.10;52.50
38325;DHT22;24126;52.672;13.622;2022-09-21T10:47:41;24.10;51.70
38325;DHT22;24126;52.672;13.622;2022-09-21T10:50:26;24.10;51.50
38325;DHT22;24126;52.672;13.622;2022-09-21T10:53:40;23.90;51.70
38325;DHT22;24126;52.672;13.622;2022-09-21T10:55:42;23.90;52.20
38325;DHT22;24126;52.672;13.622;2022-09-21T10:58:11;23.80;51.10
38325;DHT22;24126;52.672;13.622;2022-09-21T11:00:48;23.60;51.10
38325;DHT22;24126;52.672;13.622;2022-09-21T11:03:29;23.40;51.60
38325;DHT22;24126;52.672;13.622;2022-09-21T11:06:00;23.30;51.70
38325;DHT22;24126;52.672;13.622;2022-09-21T11:08:38;23.30;51.70
38325;DHT22;24126;52.672;13.622;2022-09-21T11:16:03;23.60;51.10
38325;DHT22;24126;52.672;13.622;2022-09-21T11:18:42;23.70;50.90
38325;DHT22;24126;52.672;13.622;2022-09-21T11:21:15;23.80;49.60
38325;DHT22;24126;52.672;13.622;2022-09-21T11:23:50;23.60;49.60
38325;DHT22;24126;52.672;13.622;2022-09-21T11:26:26;23.60;49.80
38325;DHT22;24126;52.672;13.622;2022-09-21T11:29:02;23.60;50.00
38325;DHT22;24126;52.672;13.622;2022-09-21T11:34:34;23.60;50.20
38325;DHT22;24126;52.672;13.622;2022-09-21T11:39:55;23.70;49.10
38325;DHT22;24126;52.672;13.622;2022-09-21T11:45:09;23.90;48.40
38325;DHT22;24126;52.672;13.622;2022-09-21T11:52:56;24.10;48.00
38325;DHT22;24126;52.672;13.622;2022-09-21T11:55:32;24.20;48.30
38325;DHT22;24126;52.672;13.622;2022-09-21T11:58:04;24.30;48.60
38325;DHT22;24126;52.672;13.622;2022-09-21T12:00:45;24.40;48.50
38325;DHT22;24126;52.672;13.622;2022-09-21T12:03:25;24.40;47.90
38325;DHT22;24126;52.672;13.622;2022-09-21T12:08:37;24.00;48.30
38325;DHT22;24126;52.672;13.622;2022-09-21T12:11:25;23.80;48.40
38325;DHT22;24126;52.672;13.622;2022-09-21T12:14:04;23.60;48.70
38325;DHT22;24126;52.672;13.622;2022-09-21T12:17:12;23.30;49.10
38325;DHT22;24126;52.672;13.622;2022-09-21T12:22:05;22.90;49.10
38325;DHT22;24126;52.672;13.622;2022-09-21T12:24:35;22.70;48.90
38325;DHT22;24126;52.672;13.622;2022-09-21T12:27:10;22.50;49.20
38325;DHT22;24126;52.672;13.622;2022-09-21T12:29:40;22.30;49.60
38325;DHT22;24126;52.672;13.622;2022-09-21T12:34:42;22.40;50.30
38325;DHT22;24126;52.672;13.622;2022-09-21T12:37:13;22.50;50.30
38325;DHT22;24126;52.672;13.622;2022-09-21T12:39:43;22.60;50.20
38325;DHT22;24126;52.672;13.622;2022-09-21T12:42:20;22.70;50.30
38325;DHT22;24126;52.672;13.622;2022-09-21T12:44:50;22.80;50.00
38325;DHT22;24126;52.672;13.622;2022-09-21T12:47:20;22.90;50.20
38325;DHT22;24126;52.672;13.622;2022-09-21T12:49:48;23.00;49.80
38325;DHT22;24126;52.672;13.622;2022-09-21T12:52:19;23.10;49.10
38325;DHT22;24126;52.672;13.622;2022-09-21T12:54:59;23.10;49.00
38325;DHT22;24126;52.672;13.622;2022-09-21T12:57:44;23.10;48.70
38325;DHT22;24126;52.672;13.622;2022-09-21T13:00:15;23.00;48.00
38325;DHT22;24126;52.672;13.622;2022-09-21T13:05:32;22.70;48.30
38325;DHT22;24126;52.672;13.622;2022-09-21T13:08:05;22.50;48.00
38325;DHT22;24126;52.672;13.622;2022-09-21T13:10:47;22.40;48.30
38325;DHT22;24126;52.672;13.622;2022-09-21T13:13:24;22.30;48.30
38325;DHT22;24126;52.672;13.622;2022-09-21T13:15:52;22.10;48.30
38325;DHT22;24126;52.672;13.622;2022-09-21T13:21:00;22.00;48.50
38325;DHT22;24126;52.672;13.622;2022-09-21T13:23:36;22.00;49.10
38325;DHT22;24126;52.672;13.622;2022-09-21T13:26:05;22.10;49.20
38325;DHT22;24126;52.672;13.622;2022-09-21T13:28:40;22.10;48.80
38325;DHT22;24126;52.672;13.622;2022-09-21T13:33:40;22.10;48.10
38325;DHT22;24126;52.672;13.622;2022-09-21T13:36:28;22.10;47.90
38325;DHT22;24126;52.672;13.622;2022-09-21T13:38:57;22.00;47.60
38325;DHT22;24126;52.672;13.622;2022-09-21T13:41:29;22.00;47.60
38325;DHT22;24126;52.672;13.622;2022-09-21T13:51:51;21.90;48.30
38325;DHT22;24126;52.672;13.622;2022-09-21T13:54:20;21.90;48.20
38325;DHT22;24126;52.672;13.622;2022-09-21T13:56:55;21.90;48.20
38325;DHT22;24126;52.672;13.622;2022-09-21T13:59:24;21.90;48.70
38325;DHT22;24126;52.672;13.622;2022-09-21T14:01:52;21.90;48.20
38325;DHT22;24126;52.672;13.622;2022-09-21T14:04:24;21.80;48.20
38325;DHT22;24126;52.672;13.622;2022-09-21T14:06:52;21.80;48.80
38325;DHT22;24126;52.672;13.622;2022-09-21T14:09:24;21.90;48.70
38325;DHT22;24126;52.672;13.622;2022-09-21T14:11:54;21.90;48.90
38325;DHT22;24126;52.672;13.622;2022-09-21T14:14:23;21.90;48.80
38325;DHT22;24126;52.672;13.622;2022-09-21T14:16:53;21.90;49.00
38325;DHT22;24126;52.672;13.622;2022-09-21T14:24:40;21.90;48.30
38325;DHT22;24126;52.672;13.622;2022-09-21T14:29:54;21.80;48.10
38325;DHT22;24126;52.672;13.622;2022-09-21T14:32:25;21.80;47.70
38325;DHT22;24126;52.672;13.622;2022-09-21T14:34:58;21.80;47.80
38325;DHT22;24126;52.672;13.622;2022-09-21T14:37:30;21.70;47.80
38325;DHT22;24126;52.672;13.622;2022-09-21T14:39:59;21.70;47.80
38325;DHT22;24126;52.672;13.622;2022-09-21T14:42:27;21.70;48.30
38325;DHT22;24126;52.672;13.622;2022-09-21T14:44:58;21.70;47.80
38325;DHT22;24126;52.672;13.622;2022-09-21T14:47:39;21.70;48.00
38325;DHT22;24126;52.672;13.622;2022-09-21T14:50:29;21.60;48.20
38325;DHT22;24126;52.672;13.622;2022-09-21T14:53:01;21.60;48.60
38325;DHT22;24126;52.672;13.622;2022-09-21T14:58:18;21.60;48.40
38325;DHT22;24126;52.672;13.622;2022-09-21T15:00:49;21.50;48.10
38325;DHT22;24126;52.672;13.622;2022-09-21T15:03:28;21.50;48.20
38325;DHT22;24126;52.672;13.622;2022-09-21T15:08:55;21.40;47.90
38325;DHT22;24126;52.672;13.622;2022-09-21T15:11:50;21.30;47.80
38325;DHT22;24126;52.672;13.622;2022-09-21T15:14:21;21.30;47.40
38325;DHT22;24126;52.672;13.622;2022-09-21T15:16:52;21.30;48.10
38325;DHT22;24126;52.672;13.622;2022-09-21T15:19:23;21.20;48.10
38325;DHT22;24126;52.672;13.622;2022-09-21T15:21:53;21.20;48.20
38325;DHT22;24126;52.672;13.622;2022-09-21T15:24:22;21.20;49.10
38325;DHT22;24126;52.672;13.622;2022-09-21T15:26:51;21.20;48.90
38325;DHT22;24126;52.672;13.622;2022-09-21T15:29:29;21.10;49.20
38325;DHT22;24126;52.672;13.622;2022-09-21T15:31:57;21.10;48.70
38325;DHT22;24126;52.672;13.622;2022-09-21T15:34:25;21.10;49.30
38325;DHT22;24126;52.672;13.622;2022-09-21T15:36:52;21.10;49.20
38325;DHT22;24126;52.672;13.622;2022-09-21T15:39:23;21.10;49.40
38325;DHT22;24126;52.672;13.622;2022-09-21T15:41:55;21.10;49.50
38325;DHT22;24126;52.672;13.622;2022-09-21T15:44:31;21.10;49.60
38325;DHT22;24126;52.672;13.622;2022-09-21T15:46:59;21.10;49.50
38325;DHT22;24126;52.672;13.622;2022-09-21T15:49:27;21.00;49.40
38325;DHT22;24126;52.672;13.622;2022-09-21T15:52:14;21.00;49.40
38325;DHT22;24126;52.672;13.622;2022-09-21T15:59:55;20.90;48.70
38325;DHT22;24126;52.672;13.622;2022-09-21T16:02:23;20.90;49.70
38325;DHT22;24126;52.672;13.622;2022-09-21T16:04:51;20.90;49.70
38325;DHT22;24126;52.672;13.622;2022-09-21T16:07:23;20.90;49.50
38325;DHT22;24126;52.672;13.622;2022-09-21T16:09:51;20.80;49.30
38325;DHT22;24126;52.672;13.622;2022-09-21T16:14:51;20.80;49.70
38325;DHT22;24126;52.672;13.622;2022-09-21T16:17:25;20.80;49.40
38325;DHT22;24126;52.672;13.622;2022-09-21T16:22:23;20.70;49.40
38325;DHT22;24126;52.672;13.622;2022-09-21T16:24:54;20.70;49.80
38325;DHT22;24126;52.672;13.622;2022-09-21T16:27:24;20.60;49.70
38325;DHT22;24126;52.672;13.622;2022-09-21T16:29:52;20.60;49.90
38325;DHT22;24126;52.672;13.622;2022-09-21T16:32:25;20.60;49.80
38325;DHT22;24126;52.672;13.622;2022-09-21T16:35:08;20.60;50.00
38325;DHT22;24126;52.672;13.622;2022-09-21T16:37:40;20.50;49.90
38325;DHT22;24126;52.672;13.622;2022-09-21T16:40:08;20.50;49.80
38325;DHT22;24126;52.672;13.622;2022-09-21T16:42:35;20.50;50.10
38325;DHT22;24126;52.672;13.622;2022-09-21T16:45:05;20.40;50.00
38325;DHT22;24126;52.672;13.622;2022-09-21T16:47:36;20.40;49.70
38325;DHT22;24126;52.672;13.622;2022-09-21T16:50:05;20.30;49.90
38325;DHT22;24126;52.672;13.622;2022-09-21T16:52:35;20.30;50.00
38325;DHT22;24126;52.672;13.622;2022-09-21T16:55:02;20.30;50.20
38325;DHT22;24126;52.672;13.622;2022-09-21T16:57:29;20.20;50.30
38325;DHT22;24126;52.672;13.622;2022-09-21T16:59:57;20.20;50.60
38325;DHT22;24126;52.672;13.622;2022-09-21T17:02:24;20.10;50.90
38325;DHT22;24126;52.672;13.622;2022-09-21T17:04:51;20.10;51.00
38325;DHT22;24126;52.672;13.622;2022-09-21T17:07:18;20.00;51.80
38325;DHT22;24126;52.672;13.622;2022-09-21T17:09:45;19.90;52.20
38325;DHT22;24126;52.672;13.622;2022-09-21T17:12:13;19.80;52.70
38325;DHT22;24126;52.672;13.622;2022-09-21T17:14:40;19.80;53.30
38325;DHT22;24126;52.672;13.622;2022-09-21T17:17:24;19.70;53.70
38325;DHT22;24126;52.672;13.622;2022-09-21T17:19:52;19.60;54.20
38325;DHT22;24126;52.672;13.622;2022-09-21T17:22:19;19.40;54.60
38325;DHT22;24126;52.672;13.622;2022-09-21T17:24:47;19.40;55.00
38325;DHT22;24126;52.672;13.622;2022-09-21T17:27:15;19.30;55.40
38325;DHT22;24126;52.672;13.622;2022-09-21T17:29:43;19.20;55.70
38325;DHT22;24126;52.672;13.622;2022-09-21T17:32:13;19.10;56.00
38325;DHT22;24126;52.672;13.622;2022-09-21T17:34:40;19.00;56.40
38325;DHT22;24126;52.672;13.622;2022-09-21T17:37:07;18.90;56.70
38325;DHT22;24126;52.672;13.622;2022-09-21T17:39:35;18.80;56.90
38325;DHT22;24126;52.672;13.622;2022-09-21T17:42:02;18.70;57.10
38325;DHT22;24126;52.672;13.622;2022-09-21T17:49:45;18.50;57.80
38325;DHT22;24126;52.672;13.622;2022-09-21T17:52:16;18.40;57.90
38325;DHT22;24126;52.672;13.622;2022-09-21T17:55:01;18.30;58.10
38325;DHT22;24126;52.672;13.622;2022-09-21T17:57:58;18.20;58.00
38325;DHT22;24126;52.672;13.622;2022-09-21T18:00:22;18.20;58.20
38325;DHT22;24126;52.672;13.622;2022-09-21T18:02:51;18.10;58.40
38325;DHT22;24126;52.672;13.622;2022-09-21T18:05:28;18.00;58.70
38325;DHT22;24126;52.672;13.622;2022-09-21T18:07:55;18.00;58.80
38325;DHT22;24126;52.672;13.622;2022-09-21T18:10:23;17.90;58.90
38325;DHT22;24126;52.672;13.622;2022-09-21T18:13:01;17.80;59.10
38325;DHT22;24126;52.672;13.622;2022-09-21T18:18:17;17.80;59.00